Time;durP1;ratioP1;P1;durP2;ratioP2;P2;SDS_P1;SDS_P2;PMS_P1;PMS_P2;Temp;Humidity;BMP_temperature;BMP_pressure;BME280_temperature;BME280_humidity;BME280_pressure;Samples;Min_cycle;Max_cycle;Signal;HPM_P1;HPM_P2
2022/12/25 00:01:04;;;;;;;29.30;13.95;;;9.30;99.90;;;;;;1893792;75;21129;-80
2022/12/25 00:03:58;;;;;;;38.17;14.18;;;9.20;99.90;;;;;;1904079;75;21091;-80
2022/12/25 00:06:49;;;;;;;36.25;15.45;;;9.20;99.90;;;;;;1905994;75;21223;-80
2022/12/25 00:09:41;;;;;;;25.17;13.65;;;9.00;99.90;;;;;;1901270;74;21187;-81
2022/12/25 00:12:32;;;;;;;21.27;12.33;;;9.00;99.90;;;;;;1896276;75;21068;-80
2022/12/25 00:15:24;;;;;;;17.90;12.05;;;9.10;99.90;;;;;;1897743;75;21132;-80
2022/12/25 00:21:01;;;;;;;17.77;11.80;;;9.10;99.90;;;;;;1951647;72;22696;-81
2022/12/25 00:26:33;;;;;;;18.05;10.50;;;9.10;99.90;;;;;;1934448;72;22213;-79
2022/12/25 00:29:24;;;;;;;26.85;13.62;;;9.10;99.90;;;;;;1916399;75;21131;-81
2022/12/25 00:32:15;;;;;;;28.15;12.88;;;9.20;99.90;;;;;;1901349;75;21114;-80
2022/12/25 00:35:09;;;;;;;26.33;11.85;;;9.10;99.90;;;;;;1878239;76;21105;-80
2022/12/25 00:38:01;;;;;;;28.77;13.10;;;9.10;99.90;;;;;;1915980;75;21099;-80
2022/12/25 00:40:52;;;;;;;25.12;13.40;;;9.10;99.90;;;;;;1894259;75;21102;-80
2022/12/25 00:43:44;;;;;;;43.63;13.68;;;9.10;99.90;;;;;;1884485;75;21608;-80
2022/12/25 00:46:35;;;;;;;49.33;14.73;;;9.10;99.90;;;;;;1900518;75;21101;-80
2022/12/25 00:49:27;;;;;;;49.45;14.70;;;9.10;99.90;;;;;;1907734;75;21059;-80
2022/12/25 00:52:18;;;;;;;36.90;14.53;;;9.00;99.90;;;;;;1896543;75;21168;-80
2022/12/25 00:55:10;;;;;;;31.40;12.35;;;9.00;99.90;;;;;;1909407;74;21191;-80
2022/12/25 01:00:40;;;;;;;23.75;10.65;;;8.90;99.90;;;;;;1939296;72;22710;-80
2022/12/25 01:03:32;;;;;;;26.42;11.88;;;8.90;99.90;;;;;;1906973;74;21220;-80
2022/12/25 01:06:23;;;;;;;39.60;13.45;;;8.90;99.90;;;;;;1883938;76;21106;-80
2022/12/25 01:12:24;;;;;;;23.80;9.90;;;8.60;99.90;;;;;;1912907;75;21157;-80
2022/12/25 01:15:15;;;;;;;15.68;9.25;;;8.60;99.90;;;;;;1918069;74;21094;-80
2022/12/25 01:18:07;;;;;;;15.00;9.30;;;8.60;99.90;;;;;;1914238;74;21112;-80
2022/12/25 01:21:01;;;;;;;13.48;9.55;;;8.60;99.90;;;;;;1884662;76;21248;-80
2022/12/25 01:23:53;;;;;;;13.58;9.13;;;8.60;99.90;;;;;;1894512;74;21179;-80
2022/12/25 01:26:45;;;;;;;13.13;8.95;;;8.70;99.90;;;;;;1917490;74;21098;-80
2022/12/25 01:29:36;;;;;;;11.45;8.78;;;8.60;99.90;;;;;;1911788;75;21160;-80
2022/12/25 01:32:28;;;;;;;12.05;8.70;;;8.60;99.90;;;;;;1884370;76;21128;-80
2022/12/25 01:35:19;;;;;;;13.75;9.88;;;8.70;99.90;;;;;;1920479;74;21131;-80
2022/12/25 01:38:10;;;;;;;12.20;8.53;;;8.70;99.90;;;;;;1915164;75;21201;-80
2022/12/25 01:41:02;;;;;;;12.47;8.73;;;8.60;99.90;;;;;;1914933;75;21286;-80
2022/12/25 01:44:03;;;;;;;11.95;8.70;;;8.60;99.90;;;;;;1911135;75;21179;-80
2022/12/25 01:46:55;;;;;;;14.60;9.13;;;8.60;99.90;;;;;;1884295;76;21111;-79
2022/12/25 01:49:49;;;;;;;14.20;8.83;;;8.60;99.90;;;;;;1920305;74;21131;-80
2022/12/25 01:52:41;;;;;;;12.95;9.30;;;8.60;99.90;;;;;;1909422;74;21196;-80
2022/12/25 01:55:35;;;;;;;16.80;8.95;;;8.60;99.90;;;;;;1910589;74;21106;-80
2022/12/25 01:58:26;;;;;;;11.68;7.87;;;8.60;99.90;;;;;;1907803;75;21210;-80
2022/12/25 02:01:18;;;;;;;10.18;7.78;;;8.50;99.90;;;;;;1906424;75;22253;-80
2022/12/25 02:04:15;;;;;;;12.07;7.92;;;8.50;99.90;;;;;;1909539;75;21613;-80
2022/12/25 02:09:57;;;;;;;9.85;6.62;;;8.40;99.90;;;;;;1956714;72;22114;-81
2022/12/25 02:12:49;;;;;;;11.95;6.90;;;8.50;99.90;;;;;;1929641;73;21114;-81
2022/12/25 02:15:46;;;;;;;15.43;6.22;;;8.50;99.90;;;;;;1927838;73;21105;-80
2022/12/25 02:18:40;;;;;;;11.93;6.50;;;8.50;99.90;;;;;;1941187;73;21176;-80
2022/12/25 02:21:46;;;;;;;13.08;6.25;;;8.40;99.90;;;;;;1917140;75;21108;-80
2022/12/25 02:24:49;;;;;;;12.03;6.40;;;8.40;99.90;;;;;;1917273;75;21090;-80
2022/12/25 02:27:58;;;;;;;9.40;5.42;;;8.40;99.90;;;;;;1917229;75;21179;-80
2022/12/25 02:30:52;;;;;;;8.58;5.75;;;8.40;99.90;;;;;;1895174;75;21118;-80
2022/12/25 02:34:05;;;;;;;8.23;5.83;;;8.40;99.90;;;;;;1917328;73;21204;-80
2022/12/25 02:37:00;;;;;;;7.33;5.60;;;8.40;99.90;;;;;;1917336;75;21117;-82
2022/12/25 02:39:57;;;;;;;8.33;5.12;;;8.40;99.90;;;;;;1923273;73;21144;-80
2022/12/25 03:08:24;;;;;;;10.53;6.05;;;8.10;99.90;;;;;;1916975;75;21153;-80
2022/12/25 03:11:31;;;;;;;27.62;6.70;;;8.10;99.90;;;;;;1930837;73;21585;-81
2022/12/25 03:17:33;;;;;;;50.33;10.23;;;8.10;99.90;;;;;;1927765;73;21095;-80
2022/12/25 03:26:55;;;;;;;39.60;8.25;;;8.10;99.90;;;;;;1938814;73;21156;-80
2022/12/25 03:32:58;;;;;;;29.77;7.25;;;8.10;99.90;;;;;;1916438;75;21102;-80
2022/12/25 03:36:02;;;;;;;27.62;7.05;;;8.10;99.90;;;;;;1916567;75;21129;-79
2022/12/25 04:36:08;;;;;;;10.85;5.12;;;7.70;99.90;;;;;;1890178;75;21087;-80
2022/12/25 04:39:00;;;;;;;8.15;5.42;;;7.70;99.90;;;;;;1890246;75;21111;-80
2022/12/25 04:41:51;;;;;;;15.43;5.70;;;7.60;99.90;;;;;;1894583;75;21102;-81
2022/12/25 04:44:43;;;;;;;9.43;4.97;;;7.60;99.90;;;;;;1877447;75;21511;-81
2022/12/25 04:47:34;;;;;;;9.60;4.90;;;7.60;99.90;;;;;;1883597;75;21098;-80
2022/12/25 04:50:26;;;;;;;9.73;5.25;;;7.50;99.90;;;;;;1889026;75;21147;-80
2022/12/25 04:53:18;;;;;;;16.02;5.83;;;7.50;99.90;;;;;;1883802;75;21460;-80
2022/12/25 04:56:10;;;;;;;14.13;5.55;;;7.50;99.90;;;;;;1897808;75;21110;-80
2022/12/25 05:01:41;;;;;;;20.60;4.87;;;7.40;99.90;;;;;;1940348;72;22273;-80
2022/12/25 05:04:32;;;;;;;15.85;5.00;;;7.40;99.90;;;;;;1883974;76;21067;-80
2022/12/25 05:07:23;;;;;;;25.30;5.08;;;7.50;99.90;;;;;;1911968;75;21097;-80
2022/12/25 05:10:15;;;;;;;29.87;4.92;;;7.30;99.90;;;;;;1895402;75;21695;-80
2022/12/25 05:13:06;;;;;;;37.75;5.65;;;7.30;99.90;;;;;;1900110;75;21094;-80
2022/12/25 05:15:57;;;;;;;21.73;5.22;;;7.40;99.90;;;;;;1906132;75;21074;-80
2022/12/25 05:18:51;;;;;;;22.42;5.87;;;7.40;99.90;;;;;;1906091;75;21542;-80
2022/12/25 05:21:42;;;;;;;16.27;5.12;;;7.30;99.90;;;;;;1883599;75;21617;-80
2022/12/25 05:24:33;;;;;;;28.02;5.50;;;7.30;99.90;;;;;;1884517;76;21126;-80
2022/12/25 05:27:26;;;;;;;7.75;4.17;;;7.30;99.90;;;;;;1896161;75;21562;-80
2022/12/25 05:30:17;;;;;;;15.88;5.17;;;7.20;99.90;;;;;;1894710;75;21168;-80
2022/12/25 05:33:08;;;;;;;16.00;4.45;;;7.20;99.90;;;;;;1893860;75;21540;-80
2022/12/25 05:36:01;;;;;;;13.10;4.78;;;7.20;99.90;;;;;;1902309;75;21098;-80
2022/12/25 05:38:52;;;;;;;4.58;3.98;;;7.10;99.90;;;;;;1897370;75;21051;-80
2022/12/25 05:41:43;;;;;;;5.00;3.85;;;7.10;99.90;;;;;;1895138;75;21221;-80
2022/12/25 05:44:36;;;;;;;5.00;4.37;;;7.10;99.90;;;;;;1894943;75;21105;-80
2022/12/25 05:47:27;;;;;;;9.40;4.65;;;7.20;99.90;;;;;;1897555;75;21063;-82
2022/12/25 05:50:19;;;;;;;6.17;4.70;;;7.20;99.90;;;;;;1898406;75;21151;-80
2022/12/25 05:53:11;;;;;;;6.20;4.80;;;7.20;99.90;;;;;;1895263;75;21643;-80
2022/12/25 05:56:04;;;;;;;6.45;4.33;;;7.20;99.90;;;;;;1891543;75;21055;-80
2022/12/25 05:58:55;;;;;;;7.85;4.62;;;7.10;99.90;;;;;;1905204;75;21144;-80
2022/12/25 06:01:46;;;;;;;9.28;5.00;;;7.10;99.90;;;;;;1908158;74;21121;-80
2022/12/25 06:04:38;;;;;;;11.22;4.90;;;7.10;99.90;;;;;;1926075;74;21087;-80
2022/12/25 06:07:30;;;;;;;9.53;4.78;;;7.10;99.90;;;;;;1899330;74;21369;-80
2022/12/25 06:10:21;;;;;;;6.70;4.53;;;7.10;99.90;;;;;;1916132;74;21110;-80
2022/12/25 06:13:13;;;;;;;8.05;4.72;;;7.10;99.90;;;;;;1910161;74;21058;-80
2022/12/25 06:16:06;;;;;;;8.40;4.87;;;7.10;99.90;;;;;;1905255;74;21094;-80
2022/12/25 06:18:57;;;;;;;10.60;5.10;;;7.10;99.90;;;;;;1904113;74;21130;-80
2022/12/25 06:21:50;;;;;;;8.30;4.50;;;7.10;99.90;;;;;;1902105;74;21111;-82
2022/12/25 06:24:41;;;;;;;10.63;4.87;;;7.00;99.90;;;;;;1912957;74;21207;-80
2022/12/25 06:27:33;;;;;;;20.12;5.80;;;7.00;99.90;;;;;;1907795;74;21051;-80
2022/12/25 06:30:24;;;;;;;12.68;5.45;;;7.10;99.90;;;;;;1904060;74;21641;-80
2022/12/25 06:33:15;;;;;;;9.60;5.95;;;7.10;99.90;;;;;;1903869;74;21122;-80
2022/12/25 06:36:10;;;;;;;19.02;6.40;;;7.10;99.90;;;;;;1913991;74;21098;-81
2022/12/25 06:39:02;;;;;;;10.95;6.60;;;7.10;99.90;;;;;;1909654;74;21122;-81
2022/12/25 06:41:53;;;;;;;12.50;6.85;;;7.10;99.90;;;;;;1904724;74;21094;-80
2022/12/25 06:44:45;;;;;;;22.90;6.40;;;7.20;99.90;;;;;;1897451;74;21110;-80
2022/12/25 06:47:36;;;;;;;10.03;6.10;;;7.10;99.90;;;;;;1878304;76;21104;-80
2022/12/25 06:50:27;;;;;;;15.87;6.07;;;7.10;99.90;;;;;;1899321;75;21618;-82
2022/12/25 06:53:19;;;;;;;15.25;4.90;;;7.10;99.90;;;;;;1838635;77;21077;-80
2022/12/25 06:56:14;;;;;;;16.10;4.60;;;7.10;99.90;;;;;;1910125;74;21131;-80
2022/12/25 06:59:07;;;;;;;12.00;4.65;;;7.00;99.90;;;;;;1906786;74;21098;-80
2022/12/25 07:01:58;;;;;;;17.07;5.53;;;7.00;99.90;;;;;;1893739;74;21090;-80
2022/12/25 07:04:51;;;;;;;18.48;4.67;;;7.00;99.90;;;;;;1887059;75;21127;-80
2022/12/25 07:07:42;;;;;;;18.42;4.75;;;6.90;99.90;;;;;;1885864;75;21172;-80
2022/12/25 07:10:33;;;;;;;14.60;4.72;;;6.90;99.90;;;;;;1871904;77;21084;-80
2022/12/25 07:13:24;;;;;;;8.83;4.40;;;6.90;99.90;;;;;;1876208;76;21170;-80
2022/12/25 07:16:16;;;;;;;9.78;4.97;;;7.00;99.90;;;;;;1898334;75;21145;-80
2022/12/25 07:19:08;;;;;;;11.73;4.33;;;7.00;99.90;;;;;;1915192;75;21189;-80
2022/12/25 07:22:00;;;;;;;11.70;4.50;;;7.00;99.90;;;;;;1882200;75;21098;-80
2022/12/25 07:24:51;;;;;;;10.13;4.10;;;7.00;99.90;;;;;;1895268;75;21110;-80
2022/12/25 07:27:42;;;;;;;28.20;4.95;;;7.00;99.90;;;;;;1871659;75;21099;-80
2022/12/25 07:30:34;;;;;;;9.18;3.65;;;7.00;99.90;;;;;;1882527;75;21201;-80
2022/12/25 07:33:25;;;;;;;8.98;3.62;;;7.00;99.90;;;;;;1894513;75;21102;-80
2022/12/25 07:36:17;;;;;;;13.00;3.92;;;7.00;99.90;;;;;;1905529;75;21099;-81
2022/12/25 07:39:09;;;;;;;9.95;3.33;;;6.90;99.90;;;;;;1883719;76;21139;-80
2022/12/25 07:42:01;;;;;;;11.83;3.83;;;6.90;99.90;;;;;;1896182;75;21598;-80
2022/12/25 07:44:52;;;;;;;4.78;3.22;;;6.90;99.90;;;;;;1874845;75;21130;-80
2022/12/25 07:47:44;;;;;;;11.43;3.60;;;6.90;99.90;;;;;;1885784;75;21059;-80
2022/12/25 07:50:35;;;;;;;8.58;3.62;;;6.90;99.90;;;;;;1885277;75;21142;-81
2022/12/25 07:53:28;;;;;;;7.62;2.87;;;6.90;99.90;;;;;;1897534;75;21140;-80
2022/12/25 07:56:20;;;;;;;7.28;3.02;;;6.90;99.90;;;;;;1881963;75;21103;-80
2022/12/25 07:59:12;;;;;;;5.47;3.17;;;6.90;99.90;;;;;;1894201;75;21119;-80
2022/12/25 08:02:03;;;;;;;8.98;3.00;;;6.90;99.90;;;;;;1903584;75;21124;-80
2022/12/25 08:04:55;;;;;;;7.47;3.20;;;6.80;99.90;;;;;;1899559;75;21164;-80
2022/12/25 08:07:46;;;;;;;10.78;3.30;;;6.80;99.90;;;;;;1884403;75;21102;-80
2022/12/25 08:10:39;;;;;;;5.85;3.72;;;6.90;99.90;;;;;;1893587;75;21203;-80
2022/12/25 08:13:32;;;;;;;6.55;3.62;;;6.90;99.90;;;;;;1905144;75;21164;-80
2022/12/25 08:16:24;;;;;;;4.55;3.15;;;7.00;99.90;;;;;;1888528;75;21129;-80
2022/12/25 08:19:15;;;;;;;6.92;3.98;;;7.00;99.90;;;;;;1883156;75;21094;-80
2022/12/25 08:22:07;;;;;;;7.05;3.77;;;7.10;99.90;;;;;;1875325;75;21106;-80
2022/12/25 08:24:59;;;;;;;5.53;4.10;;;7.20;99.90;;;;;;1883391;75;21074;-80
2022/12/25 08:27:50;;;;;;;8.15;4.45;;;7.20;99.90;;;;;;1871259;75;21183;-80
2022/12/25 08:30:41;;;;;;;11.90;5.20;;;7.30;99.90;;;;;;1883568;76;22163;-81
2022/12/25 08:33:37;;;;;;;13.03;5.58;;;7.30;99.90;;;;;;1905590;75;21588;-80
2022/12/25 08:36:28;;;;;;;10.82;5.45;;;7.40;99.90;;;;;;1892951;75;21044;-79
2022/12/25 08:39:20;;;;;;;7.22;3.87;;;7.50;99.90;;;;;;1883525;75;21110;-80
2022/12/25 08:42:14;;;;;;;4.33;3.50;;;7.60;99.90;;;;;;1887244;75;21528;-80
2022/12/25 08:45:07;;;;;;;12.37;6.00;;;7.50;99.90;;;;;;1905365;75;21203;-80
2022/12/25 08:47:59;;;;;;;12.75;5.78;;;7.70;99.90;;;;;;1893360;75;21143;-80
2022/12/25 08:50:54;;;;;;;12.75;6.17;;;7.80;99.90;;;;;;1872634;75;21193;-80
2022/12/25 08:53:47;;;;;;;6.72;4.47;;;7.80;99.90;;;;;;1898276;75;21139;-80
2022/12/25 08:56:38;;;;;;;9.98;5.37;;;7.80;99.90;;;;;;1897130;75;21084;-80
2022/12/25 08:59:30;;;;;;;12.00;7.47;;;7.90;99.90;;;;;;1894234;75;21103;-81
2022/12/25 09:02:21;;;;;;;18.92;9.43;;;8.10;99.90;;;;;;1901242;75;21160;-81
2022/12/25 09:05:13;;;;;;;15.32;8.25;;;8.10;99.90;;;;;;1902882;75;21129;-80
2022/12/25 09:08:05;;;;;;;9.83;5.60;;;8.10;99.90;;;;;;1871608;77;21113;-80
2022/12/25 09:10:58;;;;;;;6.03;4.20;;;8.10;99.90;;;;;;1893329;75;21107;-80
2022/12/25 09:13:50;;;;;;;3.85;3.20;;;8.10;99.90;;;;;;1905318;75;21091;-81
2022/12/25 09:16:41;;;;;;;5.50;4.00;;;8.20;99.90;;;;;;1903907;75;21139;-80
2022/12/25 09:19:33;;;;;;;5.95;4.53;;;8.20;99.90;;;;;;1888713;75;21198;-80
2022/12/25 09:22:27;;;;;;;6.78;4.45;;;8.30;99.90;;;;;;1915759;75;21110;-82
2022/12/25 09:25:22;;;;;;;6.50;5.20;;;8.30;99.90;;;;;;1882320;75;21091;-82
2022/12/25 09:28:13;;;;;;;7.92;4.53;;;8.40;99.90;;;;;;1894548;75;21059;-82
2022/12/25 09:31:07;;;;;;;9.30;4.87;;;8.50;99.90;;;;;;1885680;75;21120;-80
2022/12/25 09:33:59;;;;;;;8.75;6.00;;;8.50;99.90;;;;;;1896995;75;21099;-81
2022/12/25 09:36:50;;;;;;;10.20;4.37;;;8.50;99.90;;;;;;1882141;75;21065;-81
2022/12/25 09:39:42;;;;;;;9.28;5.42;;;8.50;99.90;;;;;;1894241;75;21126;-80
2022/12/25 09:42:35;;;;;;;24.92;5.95;;;8.40;99.90;;;;;;1884708;75;21205;-80
2022/12/25 09:45:31;;;;;;;6.83;5.35;;;8.30;99.90;;;;;;1898347;75;21172;-80
2022/12/25 09:48:23;;;;;;;7.80;5.87;;;8.40;99.90;;;;;;1881826;75;21091;-82
2022/12/25 09:51:16;;;;;;;9.13;6.22;;;8.40;99.90;;;;;;1894212;75;21184;-81
2022/12/25 09:54:14;;;;;;;11.18;6.42;;;8.50;99.90;;;;;;1882230;75;21125;-81
2022/12/25 09:57:07;;;;;;;15.38;7.30;;;8.50;99.90;;;;;;1897902;75;21221;-80
2022/12/25 09:59:58;;;;;;;8.23;5.55;;;8.60;99.90;;;;;;1896363;75;21129;-80
2022/12/25 10:03:15;;;;;;;13.62;6.50;;;8.60;99.90;;;;;;1882325;75;21084;-80
2022/12/25 10:06:18;;;;;;;9.08;6.92;;;8.70;99.90;;;;;;1894830;75;21118;-80
2022/12/25 10:09:35;;;;;;;9.20;6.95;;;8.70;99.90;;;;;;1910030;75;21128;-81
2022/12/25 10:12:40;;;;;;;10.45;7.62;;;8.70;99.90;;;;;;1890377;75;21535;-81
2022/12/25 10:15:35;;;;;;;10.08;7.30;;;8.90;99.90;;;;;;1894430;75;21157;-81
2022/12/25 10:18:39;;;;;;;10.53;6.78;;;9.10;99.90;;;;;;1893227;75;21094;-80
2022/12/25 10:21:31;;;;;;;9.78;7.22;;;9.10;99.90;;;;;;1904554;75;21098;-80
2022/12/25 10:24:26;;;;;;;9.55;7.50;;;9.20;99.90;;;;;;1900626;75;21143;-80
2022/12/25 10:27:22;;;;;;;8.85;6.45;;;9.20;99.90;;;;;;1894738;75;21102;-80
2022/12/25 10:30:19;;;;;;;10.93;7.70;;;9.10;99.90;;;;;;1894419;75;21111;-82
2022/12/25 10:33:12;;;;;;;10.60;8.25;;;9.10;99.90;;;;;;1894087;75;21110;-82
2022/12/25 10:36:08;;;;;;;11.63;7.55;;;9.10;99.90;;;;;;1903057;75;21094;-82
2022/12/25 10:39:00;;;;;;;9.78;7.12;;;9.20;99.90;;;;;;1916430;75;21197;-81
2022/12/25 10:45:10;;;;;;;8.93;7.25;;;9.30;99.90;;;;;;1951719;72;22216;-81
2022/12/25 10:48:07;;;;;;;12.00;7.90;;;9.30;99.90;;;;;;1914428;75;21183;-80
2022/12/25 10:50:58;;;;;;;8.43;7.47;;;9.40;99.90;;;;;;1850126;76;21137;-80
2022/12/25 10:53:49;;;;;;;10.28;8.63;;;9.40;99.90;;;;;;1904590;75;21085;-81
2022/12/25 10:56:40;;;;;;;9.25;7.58;;;9.30;99.90;;;;;;1884596;75;21149;-81
2022/12/25 10:59:35;;;;;;;11.70;8.40;;;9.30;99.90;;;;;;1896986;75;21126;-80
2022/12/25 11:02:28;;;;;;;11.78;8.73;;;9.20;99.90;;;;;;1893795;75;21087;-80
2022/12/25 11:05:27;;;;;;;12.00;8.63;;;9.30;99.90;;;;;;1855690;77;21184;-80
2022/12/25 11:08:22;;;;;;;11.55;8.33;;;9.30;99.90;;;;;;1872644;76;21054;-80
2022/12/25 11:11:20;;;;;;;10.48;8.78;;;9.60;99.90;;;;;;1872271;75;21114;-80
2022/12/25 11:14:13;;;;;;;;;;;9.50;99.90;;;;;;1874870;75;21126;-80
2022/12/25 11:17:10;;;;;;;10.65;8.53;;;9.60;99.90;;;;;;1893638;75;20173;-80
2022/12/25 11:20:03;;;;;;;10.68;8.30;;;9.60;99.90;;;;;;1872425;76;21592;-80
2022/12/25 11:22:54;;;;;;;10.38;8.45;;;9.50;99.90;;;;;;1889026;75;21469;-80
2022/12/25 11:25:47;;;;;;;12.37;9.43;;;9.60;99.90;;;;;;1883974;75;21422;-80
2022/12/25 11:28:44;;;;;;;12.70;9.50;;;9.60;99.90;;;;;;1882694;75;21048;-80
2022/12/25 11:31:38;;;;;;;12.73;9.55;;;9.60;99.90;;;;;;1880171;75;21222;-80
2022/12/25 11:34:33;;;;;;;11.43;8.88;;;9.70;99.90;;;;;;1855961;77;21133;-80
2022/12/25 11:37:30;;;;;;;13.55;9.40;;;9.80;99.90;;;;;;1872336;75;21177;-80
2022/12/25 11:40:25;;;;;;;12.63;9.70;;;9.90;99.90;;;;;;1892385;75;21102;-80
2022/12/25 11:43:19;;;;;;;12.13;9.73;;;9.90;99.90;;;;;;1880186;75;21099;-81
2022/12/25 11:48:56;;;;;;;13.85;10.88;;;10.10;99.90;;;;;;1954125;72;22170;-80
2022/12/25 11:51:51;;;;;;;12.40;9.58;;;10.10;99.90;;;;;;1897776;75;21224;-80
2022/12/25 11:54:46;;;;;;;12.50;9.50;;;10.20;99.90;;;;;;1895070;75;21091;-80
2022/12/25 11:57:40;;;;;;;12.33;9.13;;;10.30;99.90;;;;;;1889865;75;21126;-79
2022/12/25 12:00:33;;;;;;;12.15;9.60;;;10.40;99.90;;;;;;1884476;75;21160;-79
2022/12/25 12:03:28;;;;;;;10.68;9.35;;;10.40;99.90;;;;;;1899702;75;21176;-79
2022/12/25 12:06:22;;;;;;;10.65;9.15;;;10.60;99.90;;;;;;1897240;75;21098;-80
2022/12/25 12:09:19;;;;;;;10.25;8.25;;;10.70;99.90;;;;;;1894142;75;21095;-79
2022/12/25 12:12:14;;;;;;;11.20;8.45;;;10.80;99.90;;;;;;1895020;75;21109;-79
2022/12/25 12:15:09;;;;;;;12.68;7.75;;;10.90;99.90;;;;;;1895932;75;21086;-79
2022/12/25 12:18:11;;;;;;;11.88;7.97;;;11.00;99.90;;;;;;1900656;75;21175;-79
2022/12/25 12:21:08;;;;;;;10.35;6.47;;;11.10;99.90;;;;;;1897330;75;21180;-79
2022/12/25 12:24:02;;;;;;;9.23;7.63;;;11.20;99.90;;;;;;1895202;75;21054;-80
2022/12/25 12:27:04;;;;;;;8.03;7.20;;;11.30;99.90;;;;;;1895012;75;21137;-80
2022/12/25 12:29:58;;;;;;;9.40;7.50;;;11.40;99.90;;;;;;1894678;75;21148;-79
2022/12/25 12:32:51;;;;;;;8.18;6.47;;;11.50;99.90;;;;;;1897820;75;21106;-79
2022/12/25 12:35:43;;;;;;;10.25;7.72;;;11.60;99.90;;;;;;1894778;75;21113;-79
2022/12/25 12:38:36;;;;;;;7.97;7.15;;;11.70;99.90;;;;;;1892184;75;21172;-79
2022/12/25 12:41:39;;;;;;;9.60;7.70;;;11.70;99.90;;;;;;1894538;75;21110;-79
2022/12/25 12:44:33;;;;;;;11.00;7.15;;;11.80;99.90;;;;;;1893862;75;21105;-79
2022/12/25 12:47:33;;;;;;;9.90;7.50;;;11.80;99.90;;;;;;1903701;74;21305;-79
2022/12/25 12:50:36;;;;;;;8.28;6.85;;;11.80;99.90;;;;;;1915808;74;21089;-80
2022/12/25 12:53:30;;;;;;;7.85;6.70;;;12.00;99.90;;;;;;1913071;74;21151;-79
2022/12/25 12:56:22;;;;;;;8.83;7.00;;;12.00;99.90;;;;;;1910959;74;21086;-79
2022/12/25 12:59:13;;;;;;;10.18;7.60;;;12.10;99.90;;;;;;1910450;74;21149;-79
2022/12/25 13:02:14;;;;;;;9.48;6.90;;;12.20;99.90;;;;;;1912106;74;21139;-81
2022/12/25 13:05:16;;;;;;;7.67;6.58;;;12.20;99.90;;;;;;1916607;74;21214;-79
2022/12/25 13:08:14;;;;;;;8.20;6.30;;;12.30;99.90;;;;;;1932776;74;21100;-80
2022/12/25 13:11:09;;;;;;;7.33;6.17;;;12.20;99.90;;;;;;1910101;74;21090;-80
2022/12/25 13:14:03;;;;;;;6.00;5.40;;;12.20;99.90;;;;;;1910177;74;21633;-80
2022/12/25 13:16:54;;;;;;;6.40;5.70;;;12.30;99.90;;;;;;1908384;74;21654;-79
2022/12/25 13:19:47;;;;;;;6.40;5.47;;;12.30;99.90;;;;;;1899425;75;21623;-79
2022/12/25 13:22:38;;;;;;;7.97;6.00;;;12.40;99.90;;;;;;1913303;74;21179;-79
2022/12/25 13:25:29;;;;;;;7.35;6.37;;;12.50;99.90;;;;;;1901288;74;21109;-79
2022/12/25 13:28:26;;;;;;;7.78;6.30;;;12.70;99.90;;;;;;1903060;74;21253;-79
2022/12/25 13:31:20;;;;;;;9.00;6.28;;;12.70;99.90;;;;;;1910904;74;21113;-81
2022/12/25 13:34:19;;;;;;;7.00;6.25;;;12.80;99.90;;;;;;1932439;74;21661;-80
2022/12/25 13:37:14;;;;;;;8.18;6.50;;;12.80;99.90;;;;;;1912919;74;21287;-79
2022/12/25 13:40:14;;;;;;;6.80;5.65;;;12.90;99.90;;;;;;1901116;74;21094;-79
2022/12/25 13:43:06;;;;;;;8.63;6.40;;;13.00;99.90;;;;;;1830397;77;21193;-79
2022/12/25 13:45:58;;;;;;;9.53;5.80;;;13.00;99.90;;;;;;1910125;74;21114;-79
2022/12/25 13:48:57;;;;;;;7.22;6.47;;;13.10;99.90;;;;;;1914745;74;21113;-79
2022/12/25 13:51:49;;;;;;;9.48;6.67;;;13.20;99.90;;;;;;1912617;74;21078;-81
2022/12/25 13:54:42;;;;;;;11.53;8.08;;;13.20;99.90;;;;;;1909815;74;21078;-80
2022/12/25 13:57:37;;;;;;;7.30;6.12;;;13.20;99.90;;;;;;1909539;74;21568;-79
2022/12/25 14:00:33;;;;;;;8.88;6.50;;;13.10;99.90;;;;;;1911324;74;21168;-79
2022/12/25 14:03:28;;;;;;;6.10;5.17;;;12.90;99.90;;;;;;1915906;74;21082;-79
2022/12/25 14:06:23;;;;;;;6.90;5.92;;;12.90;99.90;;;;;;1920711;74;21177;-81
2022/12/25 14:09:15;;;;;;;7.17;5.87;;;12.90;99.90;;;;;;1856912;77;21138;-80
2022/12/25 14:12:08;;;;;;;7.22;5.87;;;12.80;99.90;;;;;;1921368;74;21157;-79
2022/12/25 14:15:03;;;;;;;8.43;5.78;;;12.80;99.90;;;;;;1919563;74;21145;-80
2022/12/25 14:17:54;;;;;;;6.72;5.87;;;12.70;99.90;;;;;;1917166;74;21098;-80
2022/12/25 14:20:58;;;;;;;6.85;5.97;;;12.70;99.90;;;;;;1921541;74;21599;-80
2022/12/25 14:23:51;;;;;;;7.03;6.20;;;12.60;99.90;;;;;;1921251;74;21061;-79
2022/12/25 14:26:43;;;;;;;6.42;5.83;;;12.60;99.90;;;;;;1921106;74;21107;-79
2022/12/25 14:29:37;;;;;;;6.40;5.70;;;12.50;99.90;;;;;;1919076;74;21098;-79
2022/12/25 14:32:31;;;;;;;6.92;5.60;;;12.60;99.90;;;;;;1914606;74;21094;-79
2022/12/25 14:35:23;;;;;;;7.00;5.53;;;12.50;99.90;;;;;;1910130;74;21696;-81
2022/12/25 14:38:18;;;;;;;6.87;5.60;;;12.40;99.90;;;;;;1909809;74;21179;-80
2022/12/25 14:41:32;;;;;;;6.53;5.53;;;12.50;99.90;;;;;;1909604;74;21099;-80
2022/12/25 14:44:30;;;;;;;7.28;5.42;;;12.50;99.90;;;;;;1910728;74;21204;-79
2022/12/25 14:47:22;;;;;;;6.80;6.08;;;12.50;99.90;;;;;;1899328;75;21105;-78
2022/12/25 14:50:28;;;;;;;7.10;5.20;;;12.50;99.90;;;;;;1861418;77;21224;-80
2022/12/25 14:53:21;;;;;;;6.70;6.00;;;12.60;99.90;;;;;;1835267;77;21099;-80
2022/12/25 14:56:17;;;;;;;7.03;5.92;;;12.60;99.90;;;;;;1832450;77;21379;-80
2022/12/25 14:59:19;;;;;;;7.67;6.07;;;12.60;99.90;;;;;;1881896;75;21066;-80
2022/12/25 15:02:16;;;;;;;7.90;5.72;;;12.50;99.90;;;;;;1871479;77;21481;-81
2022/12/25 15:05:30;;;;;;;6.83;6.12;;;12.60;99.90;;;;;;1866520;77;21159;-79
2022/12/25 15:08:24;;;;;;;7.45;6.22;;;12.50;99.90;;;;;;1836221;77;21155;-80
2022/12/25 15:11:16;;;;;;;7.25;6.25;;;12.50;99.90;;;;;;1836428;77;21228;-80
2022/12/25 15:14:07;;;;;;;8.00;6.08;;;12.40;99.90;;;;;;1833661;77;21138;-79
2022/12/25 15:17:01;;;;;;;7.75;6.00;;;12.40;99.90;;;;;;1833807;77;21130;-79
2022/12/25 15:19:53;;;;;;;7.72;6.40;;;12.40;99.90;;;;;;1836346;77;21163;-79
2022/12/25 15:22:45;;;;;;;7.80;6.05;;;12.40;99.90;;;;;;1823831;79;21083;-79
2022/12/25 15:25:37;;;;;;;7.62;6.12;;;12.30;99.90;;;;;;1841130;77;21179;-79
2022/12/25 15:28:29;;;;;;;6.42;5.70;;;12.20;99.90;;;;;;1844226;77;21147;-79
2022/12/25 15:31:23;;;;;;;8.20;6.17;;;12.20;99.90;;;;;;1839712;77;21075;-79
2022/12/25 15:34:19;;;;;;;6.33;5.72;;;12.20;99.90;;;;;;1886421;75;21092;-79
2022/12/25 15:37:11;;;;;;;7.72;6.28;;;12.10;99.90;;;;;;1894744;75;21136;-81
2022/12/25 15:40:02;;;;;;;9.05;6.42;;;12.00;99.90;;;;;;1893997;75;21114;-81
2022/12/25 15:42:55;;;;;;;8.43;6.45;;;11.90;99.90;;;;;;1893746;75;21091;-79
2022/12/25 15:45:46;;;;;;;8.18;7.00;;;11.80;99.90;;;;;;1898118;75;21103;-79
2022/12/25 15:48:38;;;;;;;7.08;6.37;;;11.80;99.90;;;;;;1896163;75;21106;-79
2022/12/25 15:51:29;;;;;;;10.00;8.18;;;11.80;99.90;;;;;;1891954;74;21578;-79
2022/12/25 15:54:26;;;;;;;8.35;7.50;;;11.70;99.90;;;;;;1914837;74;21167;-80
2022/12/25 15:57:22;;;;;;;8.75;7.00;;;11.70;99.90;;;;;;1913423;74;21157;-81
2022/12/25 16:00:21;;;;;;;8.63;7.25;;;11.60;99.90;;;;;;1908511;74;21123;-80
2022/12/25 16:03:12;;;;;;;11.48;8.45;;;11.50;99.90;;;;;;1913865;74;21160;-80
2022/12/25 16:06:04;;;;;;;8.73;7.83;;;11.40;99.90;;;;;;1914988;74;21089;-81
2022/12/25 16:08:55;;;;;;;10.45;9.05;;;11.40;99.90;;;;;;1896377;74;21567;-79
2022/12/25 16:11:48;;;;;;;9.03;7.87;;;11.30;99.90;;;;;;1905212;74;21109;-79
2022/12/25 16:14:39;;;;;;;14.50;8.05;;;11.30;99.90;;;;;;1907951;74;21050;-79
2022/12/25 16:17:31;;;;;;;8.68;7.28;;;11.20;99.90;;;;;;1899368;74;21228;-79
2022/12/25 16:20:23;;;;;;;10.98;7.50;;;11.20;99.90;;;;;;1914733;74;21137;-79
2022/12/25 16:23:15;;;;;;;9.20;7.80;;;11.10;99.90;;;;;;1914902;74;21050;-79
2022/12/25 16:26:06;;;;;;;8.95;8.05;;;11.10;99.90;;;;;;1909250;74;21090;-79
2022/12/25 16:28:57;;;;;;;11.53;9.15;;;11.00;99.90;;;;;;1904307;74;21156;-79
2022/12/25 16:31:51;;;;;;;12.28;9.05;;;11.00;99.90;;;;;;1903972;74;21065;-79
2022/12/25 16:34:42;;;;;;;10.32;8.53;;;10.90;99.90;;;;;;1903814;74;21183;-80
2022/12/25 16:37:34;;;;;;;9.23;7.87;;;10.90;99.90;;;;;;1907330;74;21168;-81
2022/12/25 16:40:25;;;;;;;8.58;7.53;;;10.90;99.90;;;;;;1906352;74;21047;-80
2022/12/25 16:43:17;;;;;;;10.48;8.08;;;10.80;99.90;;;;;;1894940;74;21179;-79
2022/12/25 16:46:12;;;;;;;11.80;8.55;;;10.90;99.90;;;;;;1892797;74;21074;-79
2022/12/25 16:49:04;;;;;;;10.20;8.45;;;10.80;99.90;;;;;;1892667;76;21183;-79
2022/12/25 16:51:55;;;;;;;10.53;8.60;;;10.80;99.90;;;;;;1910572;74;21124;-79
2022/12/25 16:54:47;;;;;;;10.05;8.50;;;10.80;99.90;;;;;;1898760;74;21196;-80
2022/12/25 16:57:38;;;;;;;11.95;8.95;;;10.80;99.90;;;;;;1904348;74;21164;-80
2022/12/25 17:00:29;;;;;;;11.35;9.25;;;10.80;99.90;;;;;;1910033;74;21058;-80
2022/12/25 17:03:21;;;;;;;10.03;8.35;;;10.70;99.90;;;;;;1899295;74;21071;-79